Time;durP1;ratioP1;P1;durP2;ratioP2;P2;SDS_P1;SDS_P2;PMS_P1;PMS_P2;Temp;Humidity;BMP_temperature;BMP_pressure;BME280_temperature;BME280_humidity;BME280_pressure;Samples;Min_cycle;Max_cycle;Signal;HPM_P1;HPM_P2
2022/07/01 00:00:40;;;;;;;;;;;18.60;81.50;;;;;;4129874;28;19910;-86
2022/07/01 00:03:01;;;;;;;;;;;18.50;82.10;;;;;;4123770;28;19953;-84
2022/07/01 00:05:22;;;;;;;;;;;18.50;82.20;;;;;;4141670;28;20433;-84
2022/07/01 00:07:42;;;;;;;;;;;18.50;82.30;;;;;;4121185;28;19972;-83
2022/07/01 00:10:04;;;;;;;;;;;18.50;82.60;;;;;;4141078;28;19944;-82
2022/07/01 00:12:25;;;;;;;;;;;18.50;82.80;;;;;;4146943;28;19928;-84
2022/07/01 00:14:45;;;;;;;;;;;18.40;83.20;;;;;;4128010;28;19967;-83
2022/07/01 00:17:06;;;;;;;;;;;18.40;83.40;;;;;;4145859;28;19913;-85
2022/07/01 00:19:27;;;;;;;;;;;18.50;83.20;;;;;;4141615;28;19941;-88
2022/07/01 00:21:48;;;;;;;;;;;18.40;83.70;;;;;;4142616;28;19917;-83
2022/07/01 00:24:09;;;;;;;;;;;18.50;83.60;;;;;;4129096;28;19933;-85
2022/07/01 00:26:30;;;;;;;;;;;18.50;84.40;;;;;;4145555;28;19914;-85
2022/07/01 00:28:51;;;;;;;;;;;18.50;83.10;;;;;;4150317;28;19940;-85
2022/07/01 00:31:12;;;;;;;;;;;18.60;82.00;;;;;;4150878;28;19968;-85
2022/07/01 00:33:33;;;;;;;;;;;18.50;80.70;;;;;;4146303;28;19909;-86
2022/07/01 00:35:54;;;;;;;;;;;18.60;80.40;;;;;;4132923;28;19914;-85
2022/07/01 00:38:15;;;;;;;;;;;18.60;82.10;;;;;;4150961;28;19995;-83
2022/07/01 00:40:36;;;;;;;;;;;18.60;80.60;;;;;;4135334;28;19913;-88
2022/07/01 00:42:57;;;;;;;;;;;18.60;79.30;;;;;;4141044;28;19909;-85
2022/07/01 00:45:18;;;;;;;;;;;18.60;82.30;;;;;;4145625;28;19928;-86
2022/07/01 00:47:39;;;;;;;;;;;18.60;80.80;;;;;;4142173;28;19918;-84
2022/07/01 00:50:00;;;;;;;;;;;18.60;82.50;;;;;;4129013;28;19914;-85
2022/07/01 00:52:21;;;;;;;;;;;18.60;82.80;;;;;;4144430;28;20336;-82
2022/07/01 00:54:43;;;;;;;;;;;18.50;83.80;;;;;;4134635;28;19917;-86
2022/07/01 00:57:05;;;;;;;;;;;18.60;84.00;;;;;;4128067;28;19970;-85
2022/07/01 00:59:28;;;;;;;;;;;18.60;84.10;;;;;;4144482;28;19921;-85
2022/07/01 01:01:49;;;;;;;;;;;18.60;84.00;;;;;;4130382;28;20001;-83
2022/07/01 01:04:10;;;;;;;;;;;18.70;82.60;;;;;;4142712;28;20295;-85
2022/07/01 01:06:33;;;;;;;;;;;18.70;81.80;;;;;;4125928;28;19910;-85
2022/07/01 01:08:54;;;;;;;;;;;18.70;82.30;;;;;;4131613;28;19952;-83
2022/07/01 01:11:16;;;;;;;;;;;18.70;80.80;;;;;;4129726;28;20363;-86
2022/07/01 01:13:37;;;;;;;;;;;18.80;80.30;;;;;;4141197;28;19913;-84
2022/07/01 01:15:58;;;;;;;;;;;18.80;79.70;;;;;;4128891;28;19941;-84
2022/07/01 01:18:19;;;;;;;;;;;18.80;79.40;;;;;;4141146;28;20044;-84
2022/07/01 01:20:40;;;;;;;;;;;18.80;79.40;;;;;;4140589;28;20431;-85
2022/07/01 01:23:02;;;;;;;;;;;18.80;78.90;;;;;;4141823;28;20363;-83
2022/07/01 01:25:23;;;;;;;;;;;18.90;78.70;;;;;;4144004;28;19917;-84
2022/07/01 01:27:44;;;;;;;;;;;18.80;78.40;;;;;;4146688;28;19948;-82
2022/07/01 01:30:05;;;;;;;;;;;18.80;78.40;;;;;;4132773;28;19969;-83
2022/07/01 01:32:26;;;;;;;;;;;18.90;78.50;;;;;;4130470;28;19971;-84
2022/07/01 01:34:47;;;;;;;;;;;18.90;78.40;;;;;;4141995;28;19928;-85
2022/07/01 01:37:08;;;;;;;;;;;18.90;78.40;;;;;;4142215;28;20393;-87
2022/07/01 01:39:29;;;;;;;;;;;18.90;78.40;;;;;;4140341;28;19945;-87
2022/07/01 01:41:50;;;;;;;;;;;19.00;77.80;;;;;;4140057;28;20428;-84
2022/07/01 01:44:11;;;;;;;;;;;19.00;77.60;;;;;;4141510;28;19905;-85
2022/07/01 01:46:32;;;;;;;;;;;18.90;77.50;;;;;;4127972;28;19929;-83
2022/07/01 01:48:53;;;;;;;;;;;19.10;77.20;;;;;;4142083;28;19928;-84
2022/07/01 01:51:14;;;;;;;;;;;19.10;77.00;;;;;;4139977;28;19918;-86
2022/07/01 01:53:35;;;;;;;;;;;19.10;77.70;;;;;;4146644;28;19920;-84
2022/07/01 01:55:55;;;;;;;;;;;19.10;77.40;;;;;;4142316;28;19917;-87
2022/07/01 01:58:16;;;;;;;;;;;19.10;77.70;;;;;;4143963;28;20002;-85
2022/07/01 02:00:37;;;;;;;;;;;19.10;77.20;;;;;;4128962;28;19917;-85
2022/07/01 02:02:58;;;;;;;;;;;19.10;77.30;;;;;;4141690;28;20025;-85
2022/07/01 02:05:19;;;;;;;;;;;19.10;80.10;;;;;;4127901;28;19987;-85
2022/07/01 02:07:40;;;;;;;;;;;19.10;80.40;;;;;;4139630;28;19968;-83
2022/07/01 02:10:01;;;;;;;;;;;19.10;80.60;;;;;;4129170;28;20325;-84
2022/07/01 02:12:22;;;;;;;;;;;19.10;80.50;;;;;;4137830;28;19909;-85
2022/07/01 02:14:43;;;;;;;;;;;19.20;79.90;;;;;;4126285;28;19929;-85
2022/07/01 02:17:04;;;;;;;;;;;19.20;79.30;;;;;;4141506;28;19917;-85
2022/07/01 02:19:25;;;;;;;;;;;19.20;78.40;;;;;;4142214;28;20343;-84
2022/07/01 02:21:46;;;;;;;;;;;19.20;78.00;;;;;;4143414;28;20311;-86
2022/07/01 02:24:07;;;;;;;;;;;19.20;79.70;;;;;;4141373;28;19909;-84
2022/07/01 02:26:28;;;;;;;;;;;19.20;79.80;;;;;;4142264;28;19976;-85
2022/07/01 02:28:49;;;;;;;;;;;19.20;79.90;;;;;;4128071;28;19921;-85
2022/07/01 02:31:10;;;;;;;;;;;19.20;79.80;;;;;;4146818;28;19914;-84
2022/07/01 02:33:31;;;;;;;;;;;19.20;80.30;;;;;;4141795;28;20033;-84
2022/07/01 02:35:52;;;;;;;;;;;19.10;80.90;;;;;;4144808;28;19917;-85
2022/07/01 02:38:13;;;;;;;;;;;19.10;80.90;;;;;;4147025;28;20044;-85
2022/07/01 02:40:40;;;;;;;;;;;19.10;80.90;;;;;;4147051;28;19936;-86
2022/07/01 02:43:00;;;;;;;;;;;19.10;80.90;;;;;;4151679;28;19920;-87
2022/07/01 02:45:21;;;;;;;;;;;19.10;80.90;;;;;;4149810;28;19917;-84
2022/07/01 02:47:42;;;;;;;;;;;19.10;81.20;;;;;;4144789;28;19909;-84
2022/07/01 02:50:04;;;;;;;;;;;19.10;80.60;;;;;;4140167;28;19981;-83
2022/07/01 02:52:25;;;;;;;;;;;19.10;80.90;;;;;;4143555;28;20316;-84
2022/07/01 02:54:45;;;;;;;;;;;19.10;80.90;;;;;;4122573;28;20008;-84
2022/07/01 02:57:06;;;;;;;;;;;19.10;81.90;;;;;;4139532;28;20264;-84
2022/07/01 02:59:28;;;;;;;;;;;19.10;80.50;;;;;;4142234;28;20017;-85
2022/07/01 03:01:49;;;;;;;;;;;19.10;81.10;;;;;;4138398;28;19984;-84
2022/07/01 03:04:10;;;;;;;;;;;19.10;80.60;;;;;;4126911;28;20081;-85
2022/07/01 03:06:31;;;;;;;;;;;19.10;79.90;;;;;;4134985;28;19988;-85
2022/07/01 03:08:52;;;;;;;;;;;19.10;79.40;;;;;;4142315;28;19909;-84
2022/07/01 03:11:13;;;;;;;;;;;19.10;79.30;;;;;;4141257;28;20244;-85
2022/07/01 03:13:34;;;;;;;;;;;19.10;78.90;;;;;;4138368;28;19959;-85
2022/07/01 03:15:55;;;;;;;;;;;19.10;78.60;;;;;;4128728;28;20060;-85
2022/07/01 03:18:16;;;;;;;;;;;19.10;78.60;;;;;;4141504;28;19924;-86
2022/07/01 03:20:37;;;;;;;;;;;19.10;78.50;;;;;;4138661;28;19916;-88
2022/07/01 03:22:58;;;;;;;;;;;19.10;79.20;;;;;;4137925;28;19945;-88
2022/07/01 03:25:18;;;;;;;;;;;19.10;78.30;;;;;;4130255;28;19959;-85
2022/07/01 03:27:44;;;;;;;;;;;19.10;78.40;;;;;;4138009;28;19918;-85
2022/07/01 03:30:06;;;;;;;;;;;19.20;78.40;;;;;;4143601;28;19917;-84
2022/07/01 03:32:26;;;;;;;;;;;19.20;78.60;;;;;;4140534;28;19917;-84
2022/07/01 03:34:49;;;;;;;;;;;19.20;78.40;;;;;;4139563;28;20528;-84
2022/07/01 03:37:10;;;;;;;;;;;19.20;78.70;;;;;;4137072;28;19924;-84
2022/07/01 03:39:31;;;;;;;;;;;19.20;78.40;;;;;;4143925;28;19913;-84
2022/07/01 03:41:52;;;;;;;;;;;19.20;78.40;;;;;;4143040;28;19909;-85
2022/07/01 03:44:13;;;;;;;;;;;19.20;78.40;;;;;;4129601;28;20654;-84
2022/07/01 03:46:35;;;;;;;;;;;19.30;78.40;;;;;;4140802;28;19921;-85
2022/07/01 03:48:56;;;;;;;;;;;19.30;78.40;;;;;;4140159;28;19917;-84
2022/07/01 03:51:17;;;;;;;;;;;19.30;78.30;;;;;;4137572;28;19905;-85
2022/07/01 03:56:17;;;;;;;;;;;19.30;78.10;;;;;;4136852;28;20414;-86
2022/07/01 03:58:38;;;;;;;;;;;19.30;78.10;;;;;;4138829;28;19960;-85
2022/07/01 04:00:59;;;;;;;;;;;19.30;78.00;;;;;;4129273;28;19914;-84
2022/07/01 04:03:20;;;;;;;;;;;19.30;77.90;;;;;;4144615;28;19910;-85
2022/07/01 04:05:41;;;;;;;;;;;19.30;77.90;;;;;;4128083;28;19917;-85
2022/07/01 04:08:06;;;;;;;;;;;19.30;77.90;;;;;;4137445;28;19916;-86
2022/07/01 04:10:27;;;;;;;;;;;19.30;77.90;;;;;;4116345;28;20044;-85
2022/07/01 04:12:47;;;;;;;;;;;19.40;77.90;;;;;;4142760;28;20467;-85
2022/07/01 04:15:08;;;;;;;;;;;19.40;78.00;;;;;;4153732;28;19917;-87
2022/07/01 04:17:29;;;;;;;;;;;19.40;79.00;;;;;;4143024;28;19910;-85
2022/07/01 04:20:18;;;;;;;;;;;19.40;78.60;;;;;;4139526;28;20410;-85
2022/07/01 04:22:38;;;;;;;;;;;19.40;78.60;;;;;;4141065;28;19913;-85
2022/07/01 04:25:00;;;;;;;;;;;19.50;78.90;;;;;;4144225;28;20000;-85
2022/07/01 04:27:22;;;;;;;;;;;19.50;78.90;;;;;;4136381;28;19952;-86
2022/07/01 04:29:43;;;;;;;;;;;19.60;79.10;;;;;;4141024;28;19966;-86
2022/07/01 04:32:04;;;;;;;;;;;19.60;79.20;;;;;;4133648;28;19937;-85
2022/07/01 04:34:25;;;;;;;;;;;19.70;79.30;;;;;;4134025;28;19996;-86
2022/07/01 04:36:46;;;;;;;;;;;19.70;78.80;;;;;;4137121;28;20397;-87
2022/07/01 04:39:07;;;;;;;;;;;19.70;78.50;;;;;;4136976;28;20387;-86
2022/07/01 04:44:07;;;;;;;;;;;19.90;78.30;;;;;;4138739;28;19921;-84
2022/07/01 04:46:28;;;;;;;;;;;19.90;78.20;;;;;;4141560;28;19922;-85
2022/07/01 04:48:49;;;;;;;;;;;19.90;78.10;;;;;;4136201;28;20015;-85
2022/07/01 04:51:10;;;;;;;;;;;19.90;78.00;;;;;;4142319;28;19917;-86
2022/07/01 04:53:31;;;;;;;;;;;19.90;77.80;;;;;;4141359;28;20290;-84
2022/07/01 04:55:52;;;;;;;;;;;20.00;77.90;;;;;;4144465;28;19944;-85
2022/07/01 04:58:14;;;;;;;;;;;20.00;77.70;;;;;;4141241;28;19910;-85
2022/07/01 05:00:35;;;;;;;;;;;20.00;77.60;;;;;;4128041;28;19991;-85
2022/07/01 05:02:56;;;;;;;;;;;20.00;77.40;;;;;;4129290;28;19914;-85
2022/07/01 05:05:16;;;;;;;;;;;20.10;77.40;;;;;;4133445;28;19941;-84
2022/07/01 05:07:37;;;;;;;;;;;20.10;77.10;;;;;;4142704;28;19909;-85
2022/07/01 05:09:59;;;;;;;;;;;20.00;76.90;;;;;;4141628;28;20362;-85
2022/07/01 05:12:19;;;;;;;;;;;20.10;76.80;;;;;;4125026;28;20348;-87
2022/07/01 05:14:43;;;;;;;;;;;20.10;77.00;;;;;;4127384;28;20352;-86
2022/07/01 05:17:04;;;;;;;;;;;20.10;76.40;;;;;;4135224;28;19937;-87
2022/07/01 05:22:04;;;;;;;;;;;20.10;76.50;;;;;;4139237;28;20008;-86
2022/07/01 05:24:30;;;;;;;;;;;20.10;77.00;;;;;;4140963;28;20366;-85
2022/07/01 05:26:51;;;;;;;;;;;20.00;76.60;;;;;;4123743;28;19910;-86
2022/07/01 05:29:12;;;;;;;;;;;20.00;76.60;;;;;;4126740;28;20002;-86
2022/07/01 05:31:33;;;;;;;;;;;20.00;76.60;;;;;;4143737;28;19916;-87
2022/07/01 05:33:54;;;;;;;;;;;20.00;76.30;;;;;;4142398;28;20391;-86
2022/07/01 05:36:15;;;;;;;;;;;20.00;76.10;;;;;;4138588;28;19913;-86
2022/07/01 05:38:37;;;;;;;;;;;19.80;75.80;;;;;;4140270;28;19952;-86
2022/07/01 05:40:57;;;;;;;;;;;19.90;75.60;;;;;;4125809;28;19953;-85
2022/07/01 05:43:18;;;;;;;;;;;19.80;75.40;;;;;;4139828;28;20119;-86
2022/07/01 05:45:39;;;;;;;;;;;19.80;75.30;;;;;;4127818;28;19917;-87
2022/07/01 05:48:00;;;;;;;;;;;19.80;74.90;;;;;;4126526;28;19914;-88
2022/07/01 05:50:21;;;;;;;;;;;19.70;74.80;;;;;;4124997;28;20048;-86
2022/07/01 05:52:45;;;;;;;;;;;19.70;75.00;;;;;;4140014;28;19910;-87
2022/07/01 05:55:07;;;;;;;;;;;19.60;74.80;;;;;;4141234;28;19906;-86
2022/07/01 05:57:27;;;;;;;;;;;19.50;74.50;;;;;;4131186;28;20097;-86
2022/07/01 05:59:50;;;;;;;;;;;19.50;74.20;;;;;;4126405;28;19917;-88
2022/07/01 06:02:11;;;;;;;;;;;19.50;74.20;;;;;;4140726;28;19917;-86
2022/07/01 06:04:33;;;;;;;;;;;19.50;74.20;;;;;;4145523;28;19913;-87
2022/07/01 06:06:54;;;;;;;;;;;19.40;74.40;;;;;;4141398;28;19917;-87
2022/07/01 06:09:15;;;;;;;;;;;19.40;74.30;;;;;;4145795;28;19910;-87
2022/07/01 06:11:36;;;;;;;;;;;19.40;74.40;;;;;;4147488;28;20430;-87
2022/07/01 06:13:57;;;;;;;;;;;19.40;74.30;;;;;;4132703;28;19910;-86
2022/07/01 06:16:18;;;;;;;;;;;19.40;74.40;;;;;;4144974;28;19905;-87
2022/07/01 06:18:39;;;;;;;;;;;19.40;74.50;;;;;;4132643;28;19913;-86
2022/07/01 06:20:59;;;;;;;;;;;19.40;74.60;;;;;;4143375;28;19917;-86
2022/07/01 06:23:20;;;;;;;;;;;19.40;74.50;;;;;;4127370;28;19921;-86
2022/07/01 06:25:41;;;;;;;;;;;19.50;74.70;;;;;;4147241;28;20260;-86
2022/07/01 06:28:02;;;;;;;;;;;19.50;74.60;;;;;;4145877;28;19914;-86
2022/07/01 06:30:23;;;;;;;;;;;19.50;74.90;;;;;;4130069;28;20480;-87
2022/07/01 06:32:44;;;;;;;;;;;19.50;74.80;;;;;;4132818;28;19918;-86
2022/07/01 06:35:05;;;;;;;;;;;19.50;74.90;;;;;;4148098;28;19952;-86
2022/07/01 06:37:26;;;;;;;;;;;19.50;74.80;;;;;;4133058;28;19913;-86
2022/07/01 06:39:47;;;;;;;;;;;19.50;74.60;;;;;;4158805;28;19917;-87
2022/07/01 06:42:08;;;;;;;;;;;19.50;74.20;;;;;;4139705;28;19969;-86
2022/07/01 06:44:29;;;;;;;;;;;19.50;73.70;;;;;;4133145;28;19913;-86
2022/07/01 06:46:50;;;;;;;;;;;19.50;73.40;;;;;;4142572;28;19913;-86
2022/07/01 06:49:11;;;;;;;;;;;19.50;73.20;;;;;;4144977;28;19909;-86
2022/07/01 06:51:32;;;;;;;;;;;19.40;73.00;;;;;;4149434;28;19933;-85
2022/07/01 06:53:52;;;;;;;;;;;19.30;72.80;;;;;;4133167;28;19920;-87
2022/07/01 06:56:13;;;;;;;;;;;19.40;72.90;;;;;;4128781;28;20224;-86
2022/07/01 06:58:34;;;;;;;;;;;19.40;72.90;;;;;;4144681;28;19917;-85
2022/07/01 07:00:55;;;;;;;;;;;19.30;72.90;;;;;;4142679;28;20043;-85
2022/07/01 07:03:16;;;;;;;;;;;19.30;72.80;;;;;;4141915;28;20383;-85
2022/07/01 07:05:37;;;;;;;;;;;19.30;72.90;;;;;;4127449;28;19909;-86
2022/07/01 07:07:58;;;;;;;;;;;19.20;72.70;;;;;;4129435;28;20369;-84
2022/07/01 07:10:19;;;;;;;;;;;19.20;72.60;;;;;;4147507;28;19917;-84
2022/07/01 07:12:40;;;;;;;;;;;19.10;72.20;;;;;;4144838;28;19917;-85
2022/07/01 07:15:00;;;;;;;;;;;19.20;72.10;;;;;;4131414;28;20285;-85
2022/07/01 07:17:21;;;;;;;;;;;19.10;72.00;;;;;;4149411;28;19910;-85
2022/07/01 07:19:42;;;;;;;;;;;19.00;71.90;;;;;;4148396;28;19936;-84
2022/07/01 07:22:03;;;;;;;;;;;19.00;72.20;;;;;;4142507;28;20052;-83
2022/07/01 07:24:24;;;;;;;;;;;18.90;72.80;;;;;;4146121;28;20305;-83
2022/07/01 07:26:45;;;;;;;;;;;18.90;72.10;;;;;;4130984;28;19948;-85
2022/07/01 07:29:06;;;;;;;;;;;18.90;72.00;;;;;;4139776;28;19918;-84
2022/07/01 07:31:26;;;;;;;;;;;18.80;71.90;;;;;;4148180;28;20264;-84
2022/07/01 07:33:47;;;;;;;;;;;18.70;71.90;;;;;;4134458;28;20323;-83
2022/07/01 07:36:08;;;;;;;;;;;18.70;71.90;;;;;;4146411;28;19981;-84
2022/07/01 07:38:29;;;;;;;;;;;18.60;71.80;;;;;;4143813;28;20253;-85
2022/07/01 07:40:50;;;;;;;;;;;18.60;71.90;;;;;;4144526;28;19917;-85
2022/07/01 07:43:11;;;;;;;;;;;18.60;72.30;;;;;;4146461;28;20612;-85
2022/07/01 07:45:32;;;;;;;;;;;18.50;72.00;;;;;;4149667;28;20352;-87
2022/07/01 07:47:54;;;;;;;;;;;18.50;71.80;;;;;;4148461;28;19913;-84
2022/07/01 07:50:15;;;;;;;;;;;18.50;71.60;;;;;;4141104;28;19909;-88
2022/07/01 07:52:36;;;;;;;;;;;18.40;71.60;;;;;;4134209;28;19918;-86
2022/07/01 07:54:57;;;;;;;;;;;18.40;71.60;;;;;;4144876;28;19956;-85
2022/07/01 07:57:18;;;;;;;;;;;18.30;71.50;;;;;;4158917;28;20188;-84
2022/07/01 07:59:39;;;;;;;;;;;18.30;71.40;;;;;;4147937;28;19926;-85
2022/07/01 08:02:00;;;;;;;;;;;18.30;71.30;;;;;;4148149;28;19909;-84
2022/07/01 08:04:21;;;;;;;;;;;18.20;71.30;;;;;;4151417;28;19933;-85
2022/07/01 08:06:42;;;;;;;;;;;18.20;71.40;;;;;;4133583;28;20324;-85
2022/07/01 08:09:03;;;;;;;;;;;18.20;71.50;;;;;;4135172;28;19914;-85
2022/07/01 08:11:24;;;;;;;;;;;18.10;71.70;;;;;;4134783;28;19918;-86
2022/07/01 08:13:45;;;;;;;;;;;18.10;71.70;;;;;;4147517;28;19917;-85
2022/07/01 08:16:07;;;;;;;;;;;18.10;71.80;;;;;;4146524;28;19921;-84
2022/07/01 08:18:28;;;;;;;;;;;18.10;71.90;;;;;;4140567;28;20144;-84
2022/07/01 08:20:52;;;;;;;;;;;18.10;71.90;;;;;;4138873;28;22143;-84
2022/07/01 08:23:13;;;;;;;;;;;18.00;71.50;;;;;;4138352;28;19917;-84
2022/07/01 08:25:34;;;;;;;;;;;18.00;71.50;;;;;;4138788;28;19973;-83
2022/07/01 08:27:55;;;;;;;;;;;18.00;71.40;;;;;;4148889;28;19999;-86
2022/07/01 08:30:15;;;;;;;;;;;17.90;71.30;;;;;;4147704;28;19960;-85
2022/07/01 08:32:36;;;;;;;;;;;17.90;71.30;;;;;;4147843;28;19956;-85
2022/07/01 08:34:57;;;;;;;;;;;17.90;71.50;;;;;;4145107;28;19909;-84
2022/07/01 08:37:18;;;;;;;;;;;17.90;71.50;;;;;;4144972;28;19992;-85
2022/07/01 08:39:39;;;;;;;;;;;17.80;71.50;;;;;;4145232;28;19921;-86
2022/07/01 08:42:00;;;;;;;;;;;17.80;71.60;;;;;;4146463;28;19932;-85
2022/07/01 08:44:21;;;;;;;;;;;17.90;71.70;;;;;;4143421;28;20355;-85
2022/07/01 08:46:41;;;;;;;;;;;17.90;71.80;;;;;;4144244;28;20318;-85
2022/07/01 08:49:03;;;;;;;;;;;17.80;71.90;;;;;;4126314;28;19921;-86
2022/07/01 08:51:23;;;;;;;;;;;17.90;72.00;;;;;;4140403;28;19957;-86
2022/07/01 08:53:44;;;;;;;;;;;17.90;72.10;;;;;;4140565;28;19956;-86
2022/07/01 08:58:48;;;;;;;;;;;17.90;72.10;;;;;;4139547;28;19972;-86
2022/07/01 09:01:16;;;;;;;;;;;17.90;72.10;;;;;;4138908;28;20358;-85
2022/07/01 09:03:36;;;;;;;;;;;17.90;72.00;;;;;;4140316;28;19909;-85
2022/07/01 09:05:57;;;;;;;;;;;17.90;71.80;;;;;;4136455;28;19960;-86
2022/07/01 09:08:18;;;;;;;;;;;17.80;71.60;;;;;;4123889;28;19917;-84
2022/07/01 09:10:39;;;;;;;;;;;17.80;71.60;;;;;;4125685;28;19918;-85
2022/07/01 09:13:05;;;;;;;;;;;17.80;71.50;;;;;;4141109;28;19909;-85
2022/07/01 09:15:26;;;;;;;;;;;17.80;71.50;;;;;;4127541;28;19914;-85
2022/07/01 09:17:46;;;;;;;;;;;17.70;71.40;;;;;;4138068;28;19925;-85
2022/07/01 09:20:07;;;;;;;;;;;17.70;71.60;;;;;;4137865;28;19957;-86
2022/07/01 09:22:28;;;;;;;;;;;17.70;71.70;;;;;;4127762;28;19920;-85
2022/07/01 09:24:51;;;;;;;;;;;17.70;72.10;;;;;;4144448;28;19910;-85
2022/07/01 09:27:13;;;;;;;;;;;17.70;72.00;;;;;;4140966;28;19909;-85
2022/07/01 09:29:35;;;;;;;;;;;17.70;72.20;;;;;;4124614;28;19913;-86
2022/07/01 09:31:56;;;;;;;;;;;17.70;72.30;;;;;;4140311;28;20040;-84
2022/07/01 09:34:18;;;;;;;;;;;17.80;72.50;;;;;;4140722;28;19910;-85
2022/07/01 09:36:41;;;;;;;;;;;17.80;72.40;;;;;;4141431;28;19910;-86
2022/07/01 09:39:03;;;;;;;;;;;17.80;72.90;;;;;;4121404;28;19918;-86
2022/07/01 09:41:25;;;;;;;;;;;17.90;72.90;;;;;;4122946;28;19921;-84
2022/07/01 09:43:46;;;;;;;;;;;17.90;73.00;;;;;;4124522;28;19914;-85
2022/07/01 09:46:08;;;;;;;;;;;17.90;72.90;;;;;;4139045;28;20036;-86
2022/07/01 09:48:32;;;;;;;;;;;17.90;72.70;;;;;;4135328;28;19968;-84
2022/07/01 09:50:53;;;;;;;;;;;17.90;72.70;;;;;;4139888;28;19914;-85
2022/07/01 09:53:14;;;;;;;;;;;17.90;72.60;;;;;;4136426;28;19918;-85
2022/07/01 09:55:35;;;;;;;;;;;18.00;72.50;;;;;;4130812;28;19918;-85
2022/07/01 09:57:56;;;;;;;;;;;18.00;72.30;;;;;;4116532;28;19918;-86
2022/07/01 10:00:16;;;;;;;;;;;18.00;72.30;;;;;;4135580;28;19920;-84
2022/07/01 10:02:38;;;;;;;;;;;18.00;72.60;;;;;;4130218;28;19913;-84
2022/07/01 10:05:01;;;;;;;;;;;17.90;72.10;;;;;;4137420;28;20037;-84
2022/07/01 10:07:33;;;;;;;;;;;17.90;72.10;;;;;;4119566;28;20005;-86
2022/07/01 10:10:13;;;;;;;;;;;17.90;72.00;;;;;;4139605;28;20426;-84
2022/07/01 10:13:21;;;;;;;;;;;17.80;71.80;;;;;;4142069;28;20430;-88
2022/07/01 10:15:43;;;;;;;;;;;17.80;71.70;;;;;;4139080;28;20355;-86
2022/07/01 10:18:04;;;;;;;;;;;17.80;71.80;;;;;;4138215;28;20302;-88
2022/07/01 10:20:51;;;;;;;;;;;17.70;71.80;;;;;;4127867;28;19929;-84
2022/07/01 10:23:12;;;;;;;;;;;17.70;71.80;;;;;;4079433;29;20013;-84
2022/07/01 10:26:07;;;;;;;;;;;17.70;72.10;;;;;;4092817;28;20223;-85
2022/07/01 10:28:29;;;;;;;;;;;17.70;72.20;;;;;;4089373;29;19910;-86
2022/07/01 10:30:51;;;;;;;;;;;17.70;72.30;;;;;;4082381;29;20034;-87
2022/07/01 10:36:46;;;;;;;;;;;17.70;72.20;;;;;;4097023;28;20427;-86
2022/07/01 10:39:10;;;;;;;;;;;17.70;72.20;;;;;;4156077;23;20011;-85
2022/07/01 10:41:41;;;;;;;;;;;17.80;72.50;;;;;;4163284;28;20479;-83
2022/07/01 10:44:04;;;;;;;;;;;17.80;72.40;;;;;;4150066;28;20033;-84
2022/07/01 10:46:44;;;;;;;;;;;17.80;72.60;;;;;;4174742;28;19916;-83
2022/07/01 10:49:05;;;;;;;;;;;17.80;72.40;;;;;;4176366;28;19917;-83
2022/07/01 10:51:42;;;;;;;;;;;17.80;72.40;;;;;;4167830;28;20361;-84
2022/07/01 10:54:03;;;;;;;;;;;17.80;72.20;;;;;;4171284;28;20379;-83
2022/07/01 10:56:38;;;;;;;;;;;17.80;72.20;;;;;;4171356;28;19908;-84
2022/07/01 10:59:01;;;;;;;;;;;17.80;72.00;;;;;;4175258;28;19955;-83
2022/07/01 11:01:22;;;;;;;;;;;17.80;72.10;;;;;;4171139;28;19905;-82
2022/07/01 11:03:44;;;;;;;;;;;17.80;72.10;;;;;;4173191;28;19959;-84
2022/07/01 11:06:05;;;;;;;;;;;17.90;72.10;;;;;;4151250;28;19913;-81
2022/07/01 11:08:26;;;;;;;;;;;17.90;72.00;;;;;;4171669;28;19927;-81
2022/07/01 11:10:51;;;;;;;;;;;17.90;71.80;;;;;;4170030;28;19917;-81
2022/07/01 11:13:14;;;;;;;;;;;17.90;71.70;;;;;;4162200;28;19908;-82
2022/07/01 11:15:35;;;;;;;;;;;17.90;71.60;;;;;;4156935;28;19927;-82
2022/07/01 11:17:57;;;;;;;;;;;17.90;71.50;;;;;;4161238;28;19939;-83
2022/07/01 11:20:21;;;;;;;;;;;17.90;71.40;;;;;;4170656;28;19919;-83
2022/07/01 11:22:42;;;;;;;;;;;17.80;71.30;;;;;;4170411;28;19916;-81
2022/07/01 11:25:05;;;;;;;;;;;17.80;71.20;;;;;;4176057;28;20004;-81
2022/07/01 11:27:26;;;;;;;;;;;17.80;71.20;;;;;;4162006;28;19917;-83
2022/07/01 11:29:58;;;;;;;;;;;17.80;71.20;;;;;;4158208;28;19940;-83
2022/07/01 11:32:25;;;;;;;;;;;17.80;71.30;;;;;;4170342;28;19924;-81
2022/07/01 11:34:46;;;;;;;;;;;17.80;71.30;;;;;;4177344;28;19913;-82
2022/07/01 11:39:49;;;;;;;;;;;17.80;71.30;;;;;;4173877;28;20018;-82
2022/07/01 11:42:11;;;;;;;;;;;17.80;71.30;;;;;;4170293;28;19917;-82
2022/07/01 11:44:43;;;;;;;;;;;17.80;71.10;;;;;;4172765;28;19928;-81
2022/07/01 11:47:05;;;;;;;;;;;17.80;70.90;;;;;;4173920;28;19917;-81
2022/07/01 11:49:26;;;;;;;;;;;17.70;70.80;;;;;;4171647;28;19913;-82
2022/07/01 11:51:53;;;;;;;;;;;17.70;70.70;;;;;;4154998;28;20289;-82
2022/07/01 11:54:22;;;;;;;;;;;17.70;70.60;;;;;;4172661;28;20327;-82
2022/07/01 11:56:45;;;;;;;;;;;17.60;70.10;;;;;;4163092;28;19917;-82
2022/07/01 11:59:06;;;;;;;;;;;17.60;70.10;;;;;;4171964;28;19913;-82
2022/07/01 12:01:31;;;;;;;;;;;17.60;70.00;;;;;;4170042;28;19938;-82
2022/07/01 12:03:53;;;;;;;;;;;17.50;70.10;;;;;;4156532;28;19979;-82
2022/07/01 12:06:15;;;;;;;;;;;17.50;70.50;;;;;;4162214;28;19916;-83
2022/07/01 12:08:36;;;;;;;;;;;17.50;70.70;;;;;;4156091;28;19920;-83
2022/07/01 12:10:59;;;;;;;;;;;17.50;71.00;;;;;;4142540;28;20007;-82
2022/07/01 12:13:23;;;;;;;;;;;17.50;71.00;;;;;;4144263;28;19927;-83
2022/07/01 12:15:44;;;;;;;;;;;17.40;71.10;;;;;;4165718;28;19920;-82
2022/07/01 12:18:05;;;;;;;;;;;17.40;71.30;;;;;;4161776;28;20603;-83
2022/07/01 12:20:32;;;;;;;;;;;17.40;71.60;;;;;;4151614;28;19920;-83
2022/07/01 12:23:09;;;;;;;;;;;17.40;71.60;;;;;;4142607;28;19917;-82
2022/07/01 12:25:32;;;;;;;;;;;17.40;71.50;;;;;;4160201;28;19910;-83
2022/07/01 12:27:53;;;;;;;;;;;17.40;71.60;;;;;;4142700;28;20080;-84
2022/07/01 12:30:23;;;;;;;;;;;17.40;72.00;;;;;;4156519;28;19912;-83
2022/07/01 12:32:44;;;;;;;;;;;17.40;72.00;;;;;;4165819;28;19923;-83
2022/07/01 12:37:48;;;;;;;;;;;17.50;72.60;;;;;;4156803;28;19916;-84
2022/07/01 12:40:29;;;;;;;;;;;17.50;72.70;;;;;;4141961;28;19917;-84
2022/07/01 12:42:50;;;;;;;;;;;17.50;72.80;;;;;;4153702;28;19999;-84
2022/07/01 12:45:13;;;;;;;;;;;17.60;72.80;;;;;;4156493;28;20004;-83
2022/07/01 12:47:34;;;;;;;;;;;17.60;72.90;;;;;;4154366;28;19917;-84
2022/07/01 12:50:10;;;;;;;;;;;17.60;73.00;;;;;;4157350;28;19913;-85
2022/07/01 12:52:31;;;;;;;;;;;17.60;72.80;;;;;;4148278;28;19917;-84
2022/07/01 12:54:52;;;;;;;;;;;17.70;73.00;;;;;;4163752;28;20352;-85
2022/07/01 12:57:13;;;;;;;;;;;17.70;73.00;;;;;;4180402;28;19982;-86
2022/07/01 12:59:34;;;;;;;;;;;17.70;72.80;;;;;;4169325;28;19943;-84
2022/07/01 13:01:58;;;;;;;;;;;17.80;72.90;;;;;;4153225;28;19913;-86
2022/07/01 13:04:29;;;;;;;;;;;17.80;72.80;;;;;;4168292;28;20112;-85
2022/07/01 13:06:50;;;;;;;;;;;17.80;73.30;;;;;;4150444;28;21150;-87
2022/07/01 13:09:11;;;;;;;;;;;17.80;73.30;;;;;;4152840;28;19905;-85
2022/07/01 13:11:32;;;;;;;;;;;17.90;73.30;;;;;;4166302;28;19936;-87
2022/07/01 13:13:52;;;;;;;;;;;18.00;73.60;;;;;;4163364;28;19912;-86
2022/07/01 13:16:13;;;;;;;;;;;18.00;73.30;;;;;;4159420;28;20416;-85
2022/07/01 13:18:34;;;;;;;;;;;18.00;73.10;;;;;;4150373;28;19952;-86
2022/07/01 13:20:55;;;;;;;;;;;18.10;73.30;;;;;;4149611;28;20436;-86
2022/07/01 13:23:16;;;;;;;;;;;18.10;73.40;;;;;;4158329;28;20351;-87
2022/07/01 13:25:37;;;;;;;;;;;18.20;73.40;;;;;;4145421;28;19928;-87
2022/07/01 13:27:58;;;;;;;;;;;18.20;73.20;;;;;;4147003;28;19924;-87
2022/07/01 13:30:19;;;;;;;;;;;18.30;73.40;;;;;;4161741;28;19916;-87
2022/07/01 13:32:40;;;;;;;;;;;18.40;73.10;;;;;;4163639;28;19916;-89
2022/07/01 13:35:02;;;;;;;;;;;18.50;73.00;;;;;;4151062;28;19909;-86
2022/07/01 13:37:23;;;;;;;;;;;18.50;71.90;;;;;;4154287;28;20498;-87
2022/07/01 13:39:44;;;;;;;;;;;18.50;72.00;;;;;;4152160;28;19987;-86
2022/07/01 13:42:05;;;;;;;;;;;18.60;71.90;;;;;;4170306;28;19947;-89
2022/07/01 13:44:26;;;;;;;;;;;18.60;71.00;;;;;;4166316;28;19944;-87
2022/07/01 13:46:47;;;;;;;;;;;18.60;70.90;;;;;;4152171;28;19921;-90
2022/07/01 13:49:08;;;;;;;;;;;18.60;70.50;;;;;;4169899;28;20113;-88
2022/07/01 13:51:30;;;;;;;;;;;18.60;70.10;;;;;;4155113;28;19963;-88
2022/07/01 13:53:51;;;;;;;;;;;18.60;70.00;;;;;;4146310;28;19953;-86
2022/07/01 13:56:12;;;;;;;;;;;18.60;69.80;;;;;;4153728;28;19916;-83
2022/07/01 13:58:35;;;;;;;;;;;18.60;69.80;;;;;;4156091;28;19909;-87
2022/07/01 14:00:56;;;;;;;;;;;18.60;69.60;;;;;;4162728;28;19924;-86
2022/07/01 14:03:17;;;;;;;;;;;18.60;69.60;;;;;;4165884;28;20278;-87
2022/07/01 14:05:38;;;;;;;;;;;18.60;69.60;;;;;;4160343;28;20372;-84